createdAt,value
2022-07-28T00:01:12.608Z,17.80
2022-07-28T00:03:41.584Z,17.78
2022-07-28T00:06:09.934Z,17.74
2022-07-28T00:08:38.929Z,17.71
2022-07-28T00:11:06.745Z,17.69
2022-07-28T00:13:34.486Z,17.69
2022-07-28T00:16:02.617Z,17.68
2022-07-28T00:18:30.558Z,17.66
2022-07-28T00:20:58.323Z,17.66
2022-07-28T00:23:32.554Z,17.64
2022-07-28T00:26:09.391Z,17.63
2022-07-28T00:28:37.614Z,17.64
2022-07-28T00:31:09.087Z,17.61
2022-07-28T00:33:40.212Z,17.58
2022-07-28T00:36:11.549Z,17.54
2022-07-28T00:38:44.029Z,17.53
2022-07-28T00:41:13.345Z,17.55
2022-07-28T00:43:45.246Z,17.52
2022-07-28T00:46:16.194Z,17.48
2022-07-28T00:48:48.153Z,17.47
2022-07-28T00:51:17.891Z,17.43
2022-07-28T00:53:46.568Z,17.43
2022-07-28T00:56:14.856Z,17.39
2022-07-28T00:58:43.281Z,17.35
2022-07-28T01:01:15.801Z,17.29
2022-07-28T01:03:53.702Z,17.22
2022-07-28T01:06:46.375Z,17.22
2022-07-28T01:09:47.496Z,17.27
2022-07-28T01:12:33.219Z,17.26
2022-07-28T01:15:36.998Z,17.24
2022-07-28T01:18:21.109Z,17.26
2022-07-28T01:20:59.111Z,17.23
2022-07-28T01:23:32.891Z,17.06
2022-07-28T01:26:09.640Z,16.97
2022-07-28T01:29:23.723Z,16.95
2022-07-28T01:32:03.039Z,16.88
2022-07-28T01:34:42.283Z,16.80
2022-07-28T01:37:20.048Z,16.78
2022-07-28T01:39:53.257Z,16.83
2022-07-28T01:42:26.497Z,16.86
2022-07-28T01:44:59.283Z,16.89
2022-07-28T01:47:30.470Z,16.91
2022-07-28T01:50:04.957Z,16.92
2022-07-28T01:52:37.331Z,17.00
2022-07-28T01:55:07.286Z,17.04
2022-07-28T01:57:37.552Z,17.04
2022-07-28T02:00:13.937Z,17.04
2022-07-28T02:02:50.376Z,17.03
2022-07-28T02:05:22.217Z,17.09
2022-07-28T02:07:52.619Z,17.08
2022-07-28T02:10:22.875Z,16.99
2022-07-28T02:12:53.036Z,16.82
2022-07-28T02:15:22.336Z,16.77
2022-07-28T02:17:53.196Z,16.81
2022-07-28T02:20:23.639Z,16.85
2022-07-28T02:22:53.934Z,16.89
2022-07-28T02:25:22.179Z,16.90
2022-07-28T02:28:03.913Z,16.91
2022-07-28T02:30:44.499Z,16.94
2022-07-28T02:33:23.292Z,17.00
2022-07-28T02:36:17.658Z,16.90
2022-07-28T02:38:49.280Z,16.82
2022-07-28T02:41:29.488Z,16.76
2022-07-28T02:44:03.646Z,16.75
2022-07-28T02:46:45.148Z,16.63
2022-07-28T02:49:23.432Z,16.53
2022-07-28T02:51:53.464Z,16.43
2022-07-28T02:54:23.857Z,16.43
2022-07-28T02:56:56.453Z,16.50
2022-07-28T02:59:27.416Z,16.48
2022-07-28T03:01:57.084Z,16.50
2022-07-28T03:04:44.340Z,16.51
2022-07-28T03:07:12.793Z,16.53
2022-07-28T03:09:44.550Z,16.63
2022-07-28T03:12:12.746Z,16.66
2022-07-28T03:14:41.811Z,16.72
2022-07-28T03:17:09.867Z,16.74
2022-07-28T03:19:38.220Z,16.78
2022-07-28T03:22:06.752Z,16.88
2022-07-28T03:24:44.560Z,16.97
2022-07-28T03:27:33.799Z,17.01
2022-07-28T03:30:11.496Z,16.89
2022-07-28T03:32:47.038Z,16.78
2022-07-28T03:35:15.426Z,16.72
2022-07-28T03:38:13.949Z,16.69
2022-07-28T03:40:46.151Z,16.55
2022-07-28T03:43:18.830Z,16.53
2022-07-28T03:45:47.934Z,16.51
2022-07-28T03:48:16.327Z,16.56
2022-07-28T03:50:44.067Z,16.55
2022-07-28T03:53:23.063Z,16.54
2022-07-28T03:55:51.819Z,16.60
2022-07-28T03:58:29.291Z,16.58
2022-07-28T04:00:58.625Z,16.46
2022-07-28T04:03:37.021Z,16.33
2022-07-28T04:06:15.798Z,16.29
2022-07-28T04:08:44.396Z,16.27
2022-07-28T04:11:12.643Z,16.25
2022-07-28T04:13:40.369Z,16.24
2022-07-28T04:16:08.130Z,16.20
2022-07-28T04:18:35.951Z,16.23
2022-07-28T04:21:04.080Z,16.26
2022-07-28T04:23:32.588Z,16.29
2022-07-28T04:26:00.539Z,16.35
2022-07-28T04:28:28.276Z,16.38
2022-07-28T04:30:56.267Z,16.36
2022-07-28T04:33:24.841Z,16.32
2022-07-28T04:35:53.372Z,16.31
2022-07-28T04:38:23.660Z,16.30
2022-07-28T04:40:51.399Z,16.33
2022-07-28T04:43:19.186Z,16.35
2022-07-28T04:45:54.642Z,16.37
2022-07-28T04:48:24.216Z,16.42
2022-07-28T04:50:53.007Z,16.45
2022-07-28T04:53:22.585Z,16.50
2022-07-28T04:55:53.486Z,16.51
2022-07-28T04:58:23.600Z,16.54
2022-07-28T05:00:51.993Z,16.62
2022-07-28T05:03:20.816Z,16.66
2022-07-28T05:05:53.880Z,16.71
2022-07-28T05:08:26.132Z,16.75
2022-07-28T05:10:56.223Z,16.75
2022-07-28T05:13:26.791Z,16.70
2022-07-28T05:15:57.007Z,16.78
2022-07-28T05:18:24.764Z,16.84
2022-07-28T05:20:52.683Z,16.92
2022-07-28T05:23:20.442Z,16.93
2022-07-28T05:25:48.198Z,16.96
2022-07-28T05:28:16.023Z,16.99
2022-07-28T05:30:45.291Z,17.02
2022-07-28T05:33:16.032Z,17.07
2022-07-28T05:35:52.825Z,17.07
2022-07-28T05:38:21.786Z,17.05
2022-07-28T05:40:50.956Z,17.08
2022-07-28T05:43:20.479Z,17.17
2022-07-28T05:45:48.484Z,17.21
2022-07-28T05:48:21.230Z,17.24
2022-07-28T05:50:51.183Z,17.31
2022-07-28T05:53:19.477Z,17.39
2022-07-28T05:56:00.613Z,17.44
2022-07-28T05:58:30.927Z,17.51
2022-07-28T06:01:03.139Z,17.61
2022-07-28T06:03:39.819Z,17.75
2022-07-28T06:06:15.842Z,17.85
2022-07-28T06:08:47.147Z,17.89
2022-07-28T06:11:22.393Z,17.97
2022-07-28T06:13:52.858Z,18.04
2022-07-28T06:16:22.903Z,18.17
2022-07-28T06:18:51.741Z,18.27
2022-07-28T06:21:22.867Z,18.37
2022-07-28T06:23:50.574Z,18.49
2022-07-28T06:26:18.375Z,18.65
2022-07-28T06:28:46.042Z,18.72
2022-07-28T06:31:13.949Z,18.74
2022-07-28T06:33:41.674Z,18.76
2022-07-28T06:36:09.411Z,18.86
2022-07-28T06:38:37.257Z,18.95
2022-07-28T06:41:05.065Z,19.01
2022-07-28T06:43:38.310Z,19.08
2022-07-28T06:46:07.610Z,19.16
2022-07-28T06:48:39.401Z,19.27
2022-07-28T06:51:07.452Z,19.47
2022-07-28T06:53:36.294Z,19.55
2022-07-28T06:56:05.366Z,19.57
2022-07-28T06:58:33.680Z,19.63
2022-07-28T07:01:03.159Z,19.74
2022-07-28T07:03:30.909Z,19.79
2022-07-28T07:05:58.687Z,19.83
2022-07-28T07:08:26.419Z,19.88
2022-07-28T07:10:55.039Z,20.02
2022-07-28T07:13:22.928Z,20.13
2022-07-28T07:15:51.165Z,20.19
2022-07-28T07:18:18.987Z,20.29
2022-07-28T07:20:46.825Z,20.31
2022-07-28T07:23:14.640Z,20.36
2022-07-28T07:25:42.486Z,20.43
2022-07-28T07:28:10.238Z,20.56
2022-07-28T07:30:38.041Z,20.68
2022-07-28T07:33:07.987Z,20.78
2022-07-28T07:35:38.742Z,20.89
2022-07-28T07:38:06.534Z,20.98
2022-07-28T07:40:34.948Z,21.05
2022-07-28T07:43:02.972Z,21.19
2022-07-28T07:45:31.034Z,21.34
2022-07-28T07:48:03.646Z,21.43
2022-07-28T07:50:31.675Z,21.50
2022-07-28T07:52:59.392Z,21.58
2022-07-28T07:55:27.781Z,21.52
2022-07-28T07:58:03.788Z,21.54
2022-07-28T08:00:31.858Z,21.60
2022-07-28T08:03:01.001Z,21.62
2022-07-28T08:05:35.910Z,21.66
2022-07-28T08:08:05.534Z,21.71
2022-07-28T08:10:36.115Z,21.84
2022-07-28T08:13:06.306Z,21.97
2022-07-28T08:15:35.279Z,22.17
2022-07-28T08:18:03.898Z,22.45
2022-07-28T08:20:31.678Z,22.80
2022-07-28T08:22:59.427Z,23.05
2022-07-28T08:25:27.224Z,23.35
2022-07-28T08:27:55.126Z,23.57
2022-07-28T08:30:26.295Z,23.80
2022-07-28T08:32:58.000Z,23.88
2022-07-28T08:35:35.431Z,23.86
2022-07-28T08:38:07.862Z,23.89
2022-07-28T08:40:38.626Z,24.01
2022-07-28T08:43:24.090Z,24.16
2022-07-28T08:45:58.109Z,24.32
2022-07-28T08:48:31.184Z,24.51
2022-07-28T08:51:06.534Z,24.60
2022-07-28T08:53:40.636Z,24.57
2022-07-28T08:56:14.600Z,24.56
2022-07-28T08:58:43.395Z,24.58
2022-07-28T09:01:11.372Z,24.65
2022-07-28T09:03:39.806Z,24.67
2022-07-28T09:06:08.043Z,24.65
2022-07-28T09:08:36.031Z,24.57
2022-07-28T09:11:06.149Z,24.58
2022-07-28T09:13:35.901Z,24.53
2022-07-28T09:16:04.561Z,24.44
2022-07-28T09:18:32.443Z,24.40
2022-07-28T09:21:00.297Z,24.34
2022-07-28T09:23:49.704Z,24.31
2022-07-28T09:26:18.608Z,24.32
2022-07-28T09:28:53.702Z,24.29
2022-07-28T09:31:25.050Z,24.13
2022-07-28T09:34:02.006Z,24.01
2022-07-28T09:36:38.805Z,23.98
2022-07-28T09:39:07.072Z,24.00
2022-07-28T09:41:50.054Z,24.07
2022-07-28T09:44:20.323Z,24.10
2022-07-28T09:46:48.900Z,23.93
2022-07-28T09:49:17.462Z,23.78
2022-07-28T09:52:04.056Z,23.70
2022-07-28T09:54:31.975Z,23.66
2022-07-28T09:56:59.777Z,23.64
2022-07-28T09:59:50.832Z,23.56
2022-07-28T10:02:25.449Z,23.57
2022-07-28T10:04:54.389Z,23.64
2022-07-28T10:07:22.684Z,23.80
2022-07-28T10:10:04.334Z,23.93
2022-07-28T10:12:35.969Z,23.94
2022-07-28T10:15:36.704Z,23.98
2022-07-28T10:18:06.270Z,24.09
2022-07-28T10:20:35.291Z,24.17
2022-07-28T10:23:11.560Z,24.23
2022-07-28T10:25:40.851Z,24.33
2022-07-28T10:28:14.406Z,24.39
2022-07-28T10:30:43.143Z,24.48
2022-07-28T10:33:19.553Z,24.60
2022-07-28T10:35:55.150Z,24.68
2022-07-28T10:38:29.710Z,24.77
2022-07-28T10:41:01.717Z,24.83
2022-07-28T10:43:31.958Z,24.93
2022-07-28T10:46:09.694Z,25.04
2022-07-28T10:48:38.912Z,25.14
2022-07-28T10:51:07.483Z,25.09
2022-07-28T10:53:54.438Z,25.08
2022-07-28T10:56:53.905Z,25.10
2022-07-28T11:00:26.202Z,25.09
2022-07-28T11:02:59.001Z,25.05
2022-07-28T11:05:41.741Z,25.09
2022-07-28T11:08:28.960Z,25.15
2022-07-28T11:11:07.398Z,25.32
2022-07-28T11:13:41.021Z,25.41
2022-07-28T11:16:15.770Z,25.47
2022-07-28T11:19:02.155Z,25.48
2022-07-28T11:21:39.696Z,25.32
2022-07-28T11:24:08.936Z,25.20
2022-07-28T11:26:44.970Z,25.14
2022-07-28T11:29:12.556Z,25.14
2022-07-28T11:31:46.441Z,25.19
2022-07-28T11:34:25.491Z,25.29
2022-07-28T11:37:07.540Z,25.42
2022-07-28T11:39:41.272Z,25.49
2022-07-28T11:42:35.848Z,25.65
2022-07-28T11:45:26.411Z,25.91
2022-07-28T11:48:23.393Z,26.24
2022-07-28T11:51:03.223Z,26.38
2022-07-28T11:53:40.132Z,26.29
2022-07-28T11:56:31.767Z,26.33
2022-07-28T11:59:06.310Z,26.23
2022-07-28T12:01:36.980Z,26.15
2022-07-28T12:04:15.365Z,26.28
2022-07-28T12:06:51.067Z,26.30
2022-07-28T12:09:25.292Z,26.42
2022-07-28T12:11:55.765Z,26.49
2022-07-28T12:14:24.191Z,26.45
2022-07-28T12:16:53.294Z,26.50
2022-07-28T12:19:21.587Z,26.51
2022-07-28T12:21:53.001Z,26.53
2022-07-28T12:24:44.853Z,26.61
2022-07-28T12:27:16.464Z,26.70
2022-07-28T12:29:59.755Z,26.79
2022-07-28T12:32:35.424Z,26.87
2022-07-28T12:35:05.054Z,26.79
2022-07-28T12:37:32.928Z,26.75
2022-07-28T12:40:02.627Z,26.73
2022-07-28T12:42:33.395Z,26.68
2022-07-28T12:45:04.710Z,26.66
2022-07-28T12:47:32.634Z,26.62
2022-07-28T12:50:19.988Z,26.65
2022-07-28T12:53:06.953Z,26.70
2022-07-28T12:55:35.646Z,26.80
2022-07-28T12:58:05.369Z,26.77
2022-07-28T13:00:36.185Z,26.69
2022-07-28T13:03:24.183Z,26.67
2022-07-28T13:06:03.218Z,26.67
2022-07-28T13:08:47.743Z,26.66
2022-07-28T13:14:05.153Z,26.88
2022-07-28T13:16:34.419Z,26.88
2022-07-28T13:19:04.386Z,26.87
2022-07-28T13:21:38.812Z,26.82
2022-07-28T13:24:10.189Z,26.77
2022-07-28T13:26:39.618Z,26.76
2022-07-28T13:29:13.174Z,26.81
2022-07-28T13:31:41.128Z,26.91
2022-07-28T13:34:10.346Z,26.94
2022-07-28T13:36:38.703Z,26.94
2022-07-28T13:39:07.800Z,26.92
2022-07-28T13:41:57.784Z,26.88
2022-07-28T13:44:23.252Z,26.84
2022-07-28T13:46:51.573Z,26.82
2022-07-28T13:49:21.568Z,26.78
2022-07-28T13:51:51.128Z,26.86
2022-07-28T13:54:20.754Z,26.85
2022-07-28T13:56:49.511Z,26.79
2022-07-28T13:59:17.457Z,26.67
2022-07-28T14:01:49.467Z,26.61
2022-07-28T14:04:21.438Z,26.60
2022-07-28T14:06:49.647Z,26.55
2022-07-28T14:09:18.774Z,26.40
2022-07-28T14:11:49.325Z,26.45
2022-07-28T14:14:18.306Z,26.47
2022-07-28T14:16:48.261Z,26.49
2022-07-28T14:19:23.279Z,26.47
2022-07-28T14:22:10.542Z,26.56
2022-07-28T14:24:41.971Z,26.75
2022-07-28T14:27:11.163Z,26.79
2022-07-28T14:29:39.941Z,26.84
2022-07-28T14:32:07.888Z,26.96
2022-07-28T14:34:36.610Z,27.17
2022-07-28T14:37:08.653Z,27.36
2022-07-28T14:39:39.999Z,27.55
2022-07-28T14:42:07.911Z,27.73
2022-07-28T14:44:35.938Z,27.95
2022-07-28T14:47:04.218Z,28.12
2022-07-28T14:49:32.043Z,28.17
2022-07-28T14:52:00.243Z,28.13
2022-07-28T14:54:28.267Z,27.95
2022-07-28T14:56:56.327Z,27.87
2022-07-28T14:59:24.492Z,27.87
2022-07-28T15:01:52.370Z,27.79
2022-07-28T15:04:20.526Z,27.73
2022-07-28T15:06:48.304Z,27.65
2022-07-28T15:09:16.114Z,27.62
2022-07-28T15:11:47.194Z,27.67
2022-07-28T15:14:16.356Z,27.64
2022-07-28T15:16:48.325Z,27.61
2022-07-28T15:19:16.462Z,27.63
2022-07-28T15:21:47.217Z,27.56
2022-07-28T15:24:16.622Z,27.43
2022-07-28T15:26:44.950Z,27.41
2022-07-28T15:29:12.742Z,27.41
2022-07-28T15:31:42.708Z,27.31
2022-07-28T15:34:13.523Z,27.18
2022-07-28T15:36:41.719Z,27.06
2022-07-28T15:39:13.915Z,26.97
2022-07-28T15:41:44.839Z,26.97
2022-07-28T15:44:14.113Z,26.90
2022-07-28T15:46:42.256Z,26.78
2022-07-28T15:49:12.129Z,26.74
2022-07-28T15:51:40.338Z,26.85
2022-07-28T15:54:08.323Z,26.97
2022-07-28T15:56:36.553Z,26.95
2022-07-28T15:59:06.811Z,26.97
2022-07-28T16:01:34.680Z,26.94
2022-07-28T16:04:03.055Z,26.87
2022-07-28T16:06:51.101Z,26.76
2022-07-28T16:09:19.375Z,26.71
2022-07-28T16:11:47.343Z,26.61
2022-07-28T16:14:18.854Z,26.53
2022-07-28T16:16:47.180Z,26.71
2022-07-28T16:19:38.715Z,26.94
2022-07-28T16:22:03.422Z,27.10
2022-07-28T16:24:31.401Z,27.12
2022-07-28T16:26:59.298Z,27.08
2022-07-28T16:29:27.363Z,27.10
2022-07-28T16:31:55.137Z,27.17
2022-07-28T16:34:23.050Z,27.18
2022-07-28T16:36:50.812Z,27.03
2022-07-28T16:39:18.942Z,26.80
2022-07-28T16:41:48.521Z,26.69
2022-07-28T16:44:16.934Z,26.61
2022-07-28T16:46:45.192Z,26.51
2022-07-28T16:49:13.056Z,26.44
2022-07-28T16:51:40.839Z,26.31
2022-07-28T16:54:08.642Z,26.11
2022-07-28T16:56:36.589Z,25.86
2022-07-28T16:59:05.763Z,25.64
2022-07-28T17:01:34.048Z,25.44
2022-07-28T17:04:03.099Z,25.30
2022-07-28T17:06:31.197Z,25.12
2022-07-28T17:08:58.939Z,24.94
2022-07-28T17:11:26.810Z,24.71
2022-07-28T17:13:54.535Z,24.49
2022-07-28T17:16:22.536Z,24.29
2022-07-28T17:18:50.447Z,24.08
2022-07-28T17:21:18.247Z,23.92
2022-07-28T17:23:46.879Z,23.81
2022-07-28T17:27:32.390Z,23.68
2022-07-28T17:29:02.511Z,23.55
2022-07-28T17:31:33.516Z,23.48
2022-07-28T17:34:01.987Z,23.40
2022-07-28T17:36:33.954Z,23.32
2022-07-28T17:39:02.030Z,23.23
2022-07-28T17:41:30.179Z,23.18
2022-07-28T17:43:58.118Z,23.14
2022-07-28T17:46:26.548Z,23.12
2022-07-28T17:48:54.977Z,23.11
2022-07-28T17:51:22.865Z,23.03
2022-07-28T17:53:50.534Z,22.98
2022-07-28T17:56:18.899Z,22.93
2022-07-28T17:58:48.897Z,22.90
2022-07-28T18:01:16.696Z,22.84
2022-07-28T18:03:58.238Z,22.81
2022-07-28T18:06:35.777Z,22.72
2022-07-28T18:09:08.355Z,22.61
2022-07-28T18:11:57.610Z,22.55
2022-07-28T18:14:28.118Z,22.53
2022-07-28T18:16:58.005Z,22.48
2022-07-28T18:19:29.601Z,22.44
2022-07-28T18:21:57.362Z,22.42
2022-07-28T18:24:26.254Z,22.33
2022-07-28T18:26:54.388Z,22.25
2022-07-28T18:29:22.402Z,22.22
2022-07-28T18:31:53.747Z,22.16
2022-07-28T18:34:23.752Z,22.12
2022-07-28T18:36:54.375Z,22.09
2022-07-28T18:39:22.870Z,22.00
2022-07-28T18:41:55.103Z,21.97
2022-07-28T18:44:22.822Z,21.90
2022-07-28T18:46:50.728Z,21.87
2022-07-28T18:49:20.057Z,21.81
2022-07-28T18:51:49.330Z,21.73
2022-07-28T18:54:27.116Z,21.67
2022-07-28T18:56:56.654Z,21.55
2022-07-28T18:59:25.149Z,21.43
2022-07-28T19:01:52.996Z,21.35
2022-07-28T19:04:21.095Z,21.23
2022-07-28T19:06:49.228Z,21.16
2022-07-28T19:09:17.007Z,21.09
2022-07-28T19:11:46.511Z,21.07
2022-07-28T19:14:18.172Z,21.08
2022-07-28T19:16:46.573Z,21.03
2022-07-28T19:19:14.695Z,21.00
2022-07-28T19:21:43.137Z,20.96
2022-07-28T19:24:16.079Z,20.95
2022-07-28T19:26:46.433Z,20.92
2022-07-28T19:29:14.256Z,20.88
2022-07-28T19:31:42.050Z,20.82
2022-07-28T19:34:11.043Z,20.75
2022-07-28T19:36:41.474Z,20.71
2022-07-28T19:39:09.737Z,20.67
2022-07-28T19:41:37.799Z,20.64
2022-07-28T19:44:05.748Z,20.62
2022-07-28T19:46:33.623Z,20.54
2022-07-28T19:49:01.553Z,20.46
2022-07-28T19:51:29.588Z,20.42
2022-07-28T19:53:59.324Z,20.39
2022-07-28T19:56:31.186Z,20.33
2022-07-28T19:59:00.389Z,20.24
2022-07-28T20:01:28.556Z,20.15
2022-07-28T20:04:03.022Z,20.09
2022-07-28T20:06:33.526Z,20.04
2022-07-28T20:09:03.591Z,19.97
2022-07-28T20:11:33.046Z,19.89
2022-07-28T20:14:01.604Z,19.80
2022-07-28T20:16:29.682Z,19.72
2022-07-28T20:18:57.825Z,19.64
2022-07-28T20:21:26.378Z,19.60
2022-07-28T20:23:57.137Z,19.54
2022-07-28T20:26:26.702Z,19.48
2022-07-28T20:29:01.649Z,19.43
2022-07-28T20:31:29.903Z,19.33
2022-07-28T20:33:57.662Z,19.24
2022-07-28T20:36:29.667Z,19.18
2022-07-28T20:38:58.025Z,19.11
2022-07-28T20:41:26.102Z,19.09
2022-07-28T20:44:18.526Z,19.01
2022-07-28T20:46:42.618Z,18.98
2022-07-28T20:49:10.633Z,18.93
2022-07-28T20:51:38.376Z,18.83
2022-07-28T20:54:06.105Z,18.84
2022-07-28T20:56:33.973Z,18.75
2022-07-28T20:59:06.629Z,18.67
2022-07-28T21:01:34.821Z,18.61
2022-07-28T21:04:02.576Z,18.53
2022-07-28T21:06:30.278Z,18.45
2022-07-28T21:09:00.630Z,18.36
2022-07-28T21:11:29.038Z,18.34
2022-07-28T21:14:03.507Z,18.28
2022-07-28T21:16:32.189Z,18.25
2022-07-28T21:19:02.018Z,18.14
2022-07-28T21:21:30.138Z,18.09
2022-07-28T21:23:57.833Z,18.07
2022-07-28T21:26:25.604Z,17.98
2022-07-28T21:29:12.476Z,17.94
2022-07-28T21:32:03.865Z,17.86
2022-07-28T21:34:32.007Z,17.75
2022-07-28T21:37:06.779Z,17.72
2022-07-28T21:39:35.764Z,17.65
2022-07-28T21:42:07.735Z,17.65
2022-07-28T21:44:39.275Z,17.61
2022-07-28T21:47:07.014Z,17.59
2022-07-28T21:49:35.179Z,17.54
2022-07-28T21:52:02.913Z,17.51
2022-07-28T21:54:30.657Z,17.50
2022-07-28T21:56:58.779Z,17.50
2022-07-28T21:59:26.633Z,17.44
2022-07-28T22:01:54.674Z,17.36
2022-07-28T22:04:22.605Z,17.38
2022-07-28T22:06:50.436Z,17.42
2022-07-28T22:09:18.225Z,17.41
2022-07-28T22:11:46.518Z,17.41
2022-07-28T22:14:14.754Z,17.42
2022-07-28T22:16:42.742Z,17.44
2022-07-28T22:19:12.168Z,17.44
2022-07-28T22:21:39.949Z,17.39
2022-07-28T22:24:08.502Z,17.34
2022-07-28T22:26:36.176Z,17.31
2022-07-28T22:29:03.902Z,17.27
2022-07-28T22:31:31.649Z,17.30
2022-07-28T22:33:59.413Z,17.36
2022-07-28T22:36:27.175Z,17.38
2022-07-28T22:38:55.458Z,17.40
2022-07-28T22:41:23.214Z,17.44
2022-07-28T22:43:51.043Z,17.46
2022-07-28T22:46:18.810Z,17.47
2022-07-28T22:48:46.698Z,17.40
2022-07-28T22:51:15.702Z,17.34
2022-07-28T22:53:43.496Z,17.27
2022-07-28T22:58:56.840Z,17.41
2022-07-28T23:01:24.703Z,17.46
2022-07-28T23:03:53.284Z,17.41
2022-07-28T23:06:21.190Z,17.35
2022-07-28T23:08:49.000Z,17.36
2022-07-28T23:11:16.969Z,17.36
2022-07-28T23:13:44.728Z,17.34
2022-07-28T23:16:13.978Z,17.32
2022-07-28T23:18:43.667Z,17.22
2022-07-28T23:21:12.388Z,17.12
2022-07-28T23:23:40.278Z,17.10
2022-07-28T23:26:08.098Z,17.12
2022-07-28T23:28:36.473Z,17.11
2022-07-28T23:31:05.612Z,17.16
2022-07-28T23:33:55.140Z,17.22
2022-07-28T23:36:26.476Z,17.19
2022-07-28T23:38:57.323Z,17.20
2022-07-28T23:41:26.646Z,17.22
2022-07-28T23:43:54.934Z,17.25
2022-07-28T23:46:23.774Z,17.27
2022-07-28T23:48:51.964Z,17.30
2022-07-28T23:51:21.287Z,17.24
2022-07-28T23:53:55.929Z,17.19
2022-07-28T23:56:24.496Z,17.12
2022-07-28T23:58:52.367Z,17.06
